Time;durP1;ratioP1;P1;durP2;ratioP2;P2;SDS_P1;SDS_P2;PMS_P1;PMS_P2;Temp;Humidity;BMP_temperature;BMP_pressure;BME280_temperature;BME280_humidity;BME280_pressure;Samples;Min_cycle;Max_cycle;Signal;HPM_P1;HPM_P2
2023/05/25 00:01:47;;;;;;;20.55;7.13;;;;;;;15.46;56.78;101705.00;5015814;28;20070;-63
2023/05/25 00:04:15;;;;;;;17.65;6.93;;;;;;;15.38;56.90;101697.44;5015200;28;20054;-64
2023/05/25 00:06:44;;;;;;;19.95;6.90;;;;;;;15.47;57.00;101686.41;4991693;28;20057;-63
2023/05/25 00:09:11;;;;;;;15.98;5.93;;;;;;;15.42;56.91;101701.25;4996308;28;20065;-63
2023/05/25 00:11:39;;;;;;;18.63;6.50;;;;;;;15.55;56.98;101699.50;5015224;28;20529;-64
2023/05/25 00:14:07;;;;;;;12.73;6.20;;;;;;;15.52;56.97;101689.84;4998504;28;20053;-63
2023/05/25 00:16:36;;;;;;;18.48;6.72;;;;;;;15.58;56.53;101698.84;5002317;28;20046;-63
2023/05/25 00:19:04;;;;;;;19.35;6.53;;;;;;;15.50;56.61;101694.06;4999744;28;20736;-63
2023/05/25 00:21:37;;;;;;;16.13;5.85;;;;;;;15.38;56.86;101683.56;5014428;28;20054;-62
2023/05/25 00:24:05;;;;;;;16.27;6.25;;;;;;;15.21;57.54;101700.16;5014618;28;20060;-63
2023/05/25 00:26:33;;;;;;;16.40;6.70;;;;;;;15.08;58.49;101683.63;5014379;28;20061;-64
2023/05/25 00:29:02;;;;;;;16.48;6.47;;;;;;;15.12;58.56;101692.94;5013826;28;20062;-63
2023/05/25 00:31:31;;;;;;;18.80;6.25;;;;;;;15.08;58.38;101689.19;4996810;28;20053;-63
2023/05/25 00:33:59;;;;;;;21.38;6.50;;;;;;;14.94;58.84;101700.34;4997595;28;20057;-63
2023/05/25 00:36:26;;;;;;;16.52;7.05;;;;;;;15.21;58.47;101682.69;5014653;28;20057;-63
2023/05/25 00:38:54;;;;;;;16.92;6.38;;;;;;;15.33;58.22;101691.22;5015362;28;20053;-63
2023/05/25 00:41:21;;;;;;;14.90;6.00;;;;;;;15.37;58.02;101687.50;5015604;28;20046;-63
2023/05/25 00:43:49;;;;;;;18.17;6.88;;;;;;;15.09;59.17;101688.84;5037804;28;20818;-63
2023/05/25 00:46:16;;;;;;;23.90;6.90;;;;;;;15.17;59.01;101681.69;5000175;28;20050;-63
2023/05/25 00:48:45;;;;;;;18.67;7.47;;;;;;;15.00;59.63;101693.53;4994388;28;20061;-63
2023/05/25 00:51:13;;;;;;;18.40;7.05;;;;;;;15.02;59.44;101696.00;4978270;28;20069;-65
2023/05/25 00:53:41;;;;;;;24.52;7.65;;;;;;;14.67;60.78;101692.22;4992974;28;20045;-63
2023/05/25 00:56:21;;;;;;;20.98;7.75;;;;;;;14.64;61.40;101699.19;5014866;28;20077;-63
2023/05/25 00:58:53;;;;;;;18.35;7.05;;;;;;;14.84;61.07;101686.75;5029358;28;20061;-63
2023/05/25 01:01:21;;;;;;;20.83;7.60;;;;;;;14.84;61.04;101691.47;5001843;28;20053;-63
2023/05/25 01:03:53;;;;;;;19.95;7.35;;;;;;;14.79;61.45;101692.44;5014582;28;20046;-62
2023/05/25 01:06:22;;;;;;;20.05;7.95;;;;;;;14.71;61.82;101687.69;4997217;28;20069;-63
2023/05/25 01:08:52;;;;;;;21.30;7.15;;;;;;;14.90;62.61;101685.50;5014400;28;20065;-63
2023/05/25 01:11:25;;;;;;;19.60;7.47;;;;;;;14.99;61.29;101686.38;5013409;28;20065;-63
2023/05/25 01:13:53;;;;;;;19.90;7.10;;;;;;;14.99;61.62;101683.59;5012988;28;20050;-62
2023/05/25 01:16:21;;;;;;;21.65;7.53;;;;;;;14.66;62.35;101677.53;5005754;28;20505;-61
2023/05/25 01:18:51;;;;;;;16.17;7.35;;;;;;;14.75;62.45;101683.13;4986076;28;20514;-61
2023/05/25 01:21:19;;;;;;;;;;;;;;;14.48;64.08;101691.59;5013669;28;20053;-64
2023/05/25 01:23:57;;;;;;;19.20;7.93;;;;;;;14.33;65.15;101681.72;4996731;28;19925;-63
2023/05/25 01:26:26;;;;;;;22.33;7.72;;;;;;;14.56;64.71;101688.88;4996742;28;20050;-62
2023/05/25 01:28:54;;;;;;;19.13;7.15;;;;;;;14.58;65.29;101685.78;5013295;28;20058;-61
2023/05/25 01:31:22;;;;;;;18.85;7.07;;;;;;;14.10;66.53;101684.75;5014388;28;20061;-62
2023/05/25 01:33:50;;;;;;;20.13;7.03;;;;;;;14.21;66.68;101686.97;4996965;28;20050;-60
2023/05/25 01:36:18;;;;;;;20.05;7.38;;;;;;;14.18;66.66;101689.53;5014113;28;20048;-62
2023/05/25 01:38:46;;;;;;;18.90;7.30;;;;;;;14.24;66.58;101697.41;5014536;28;20062;-62
2023/05/25 01:41:13;;;;;;;27.48;7.55;;;;;;;14.14;66.85;101683.81;5014659;28;20046;-62
2023/05/25 01:43:41;;;;;;;28.27;8.07;;;;;;;14.06;67.36;101692.88;5014465;28;20046;-62
2023/05/25 01:46:35;;;;;;;24.42;7.97;;;;;;;13.89;67.53;101701.03;4999873;28;20092;-62
2023/05/25 01:49:18;;;;;;;21.80;7.80;;;;;;;14.00;67.59;101691.34;5013976;28;20057;-62
2023/05/25 01:52:07;;;;;;;20.73;7.90;;;;;;;14.04;67.50;101697.91;5028445;28;20049;-62
2023/05/25 01:54:50;;;;;;;19.42;8.10;;;;;;;14.03;67.77;101693.53;5014347;28;20057;-61
2023/05/25 01:57:19;;;;;;;20.00;7.75;;;;;;;13.97;67.59;101700.28;4996978;28;20037;-61
2023/05/25 01:59:47;;;;;;;20.50;8.05;;;;;;;13.92;67.57;101705.13;4979859;28;20054;-60
2023/05/25 02:02:17;;;;;;;21.75;7.90;;;;;;;13.73;67.92;101705.28;4980382;28;20057;-61
2023/05/25 02:04:44;;;;;;;;;;;;;;;13.74;68.17;101711.66;5014506;28;20052;-62
2023/05/25 02:07:12;;;;;;;16.63;8.02;;;;;;;13.78;67.79;101712.66;4998377;28;19937;-61
2023/05/25 02:09:39;;;;;;;24.70;8.70;;;;;;;13.82;67.46;101703.41;4993609;28;20081;-61
2023/05/25 02:12:07;;;;;;;19.80;7.03;;;;;;;13.61;67.94;101715.25;5002281;28;20061;-62
2023/05/25 02:14:34;;;;;;;24.50;8.93;;;;;;;13.65;67.62;101706.00;5006597;28;20129;-62
2023/05/25 02:17:02;;;;;;;20.60;7.90;;;;;;;13.63;67.88;101710.22;4996478;28;20042;-61
2023/05/25 02:19:30;;;;;;;20.83;8.90;;;;;;;13.62;67.38;101709.38;5026800;28;20046;-61
2023/05/25 02:21:57;;;;;;;18.13;8.32;;;;;;;13.73;67.45;101713.59;5012533;28;20054;-61
2023/05/25 02:24:25;;;;;;;21.23;7.75;;;;;;;13.60;67.70;101717.19;5011841;28;20550;-62
2023/05/25 02:26:52;;;;;;;22.20;8.57;;;;;;;13.41;68.50;101716.47;5012305;28;20050;-61
2023/05/25 02:29:20;;;;;;;15.13;8.98;;;;;;;13.38;69.12;101723.47;5004306;28;20096;-62
2023/05/25 02:31:47;;;;;;;22.20;8.65;;;;;;;13.26;68.86;101719.56;5017778;28;20056;-61
2023/05/25 02:34:15;;;;;;;20.02;8.38;;;;;;;13.27;69.47;101718.41;5016526;28;20054;-62
2023/05/25 02:36:43;;;;;;;17.73;8.15;;;;;;;13.28;69.28;101731.97;5016871;28;20077;-62
2023/05/25 02:39:11;;;;;;;19.65;8.73;;;;;;;13.28;69.77;101725.63;5017818;28;20064;-61
2023/05/25 02:41:38;;;;;;;24.38;8.45;;;;;;;13.42;69.29;101723.66;5000078;28;20057;-62
2023/05/25 02:44:06;;;;;;;20.80;8.45;;;;;;;13.70;68.05;101732.78;5017056;28;20140;-61
2023/05/25 02:46:34;;;;;;;21.25;8.45;;;;;;;13.69;68.27;101729.16;5000127;28;20053;-62
2023/05/25 02:49:02;;;;;;;21.23;8.02;;;;;;;13.80;67.30;101733.38;4999928;28;20096;-62
2023/05/25 02:51:29;;;;;;;18.63;7.72;;;;;;;14.07;66.73;101733.28;5032761;28;20050;-61
2023/05/25 02:53:58;;;;;;;16.27;8.07;;;;;;;13.88;66.66;101740.94;5015672;28;20057;-61
2023/05/25 02:56:26;;;;;;;24.58;7.85;;;;;;;13.77;67.23;101742.31;5003485;28;20417;-61
2023/05/25 02:58:55;;;;;;;18.50;8.13;;;;;;;13.50;68.03;101743.13;5001577;28;20062;-62
2023/05/25 03:01:29;;;;;;;24.80;8.60;;;;;;;13.03;69.56;101748.22;5017319;28;20054;-63
2023/05/25 03:03:57;;;;;;;25.00;9.25;;;;;;;13.02;69.85;101747.38;5017156;28;20062;-62
2023/05/25 03:06:26;;;;;;;24.50;8.73;;;;;;;13.33;68.90;101742.94;4999854;28;20050;-62
2023/05/25 03:08:57;;;;;;;25.40;8.30;;;;;;;13.42;68.68;101743.84;4995926;28;20802;-62
2023/05/25 03:11:24;;;;;;;19.33;8.07;;;;;;;13.06;69.20;101742.91;4994738;28;20050;-61
2023/05/25 03:13:51;;;;;;;19.02;7.65;;;;;;;13.23;68.89;101742.31;5029178;28;20061;-62
2023/05/25 03:16:22;;;;;;;21.48;8.10;;;;;;;13.29;68.98;101744.66;4995777;28;20061;-61
2023/05/25 03:18:49;;;;;;;23.05;9.20;;;;;;;13.23;68.69;101754.19;4996034;28;20060;-61
2023/05/25 03:21:17;;;;;;;14.40;7.75;;;;;;;13.24;68.48;101755.84;5012105;28;20108;-62
2023/05/25 03:23:45;;;;;;;19.95;8.30;;;;;;;13.06;68.94;101748.44;4993191;28;20442;-62
2023/05/25 03:26:12;;;;;;;22.70;7.35;;;;;;;12.99;68.99;101761.81;4995120;28;20722;-62
2023/05/25 03:28:40;;;;;;;20.05;8.40;;;;;;;12.88;68.95;101760.34;4959209;28;20051;-60
2023/05/25 03:31:08;;;;;;;19.33;8.05;;;;;;;12.92;69.34;101761.38;5001931;28;20082;-61
2023/05/25 03:33:35;;;;;;;21.92;8.55;;;;;;;12.89;69.85;101763.94;4995090;28;20054;-61
2023/05/25 03:36:09;;;;;;;24.52;8.27;;;;;;;13.02;69.00;101768.72;4992435;28;20065;-61
2023/05/25 03:38:37;;;;;;;18.05;8.20;;;;;;;12.89;69.33;101772.22;4995673;28;20405;-61
2023/05/25 03:41:04;;;;;;;20.27;7.85;;;;;;;13.00;69.37;101773.69;4966518;28;20050;-61
2023/05/25 03:43:32;;;;;;;27.25;7.95;;;;;;;13.09;68.98;101778.25;5027375;28;20053;-62
2023/05/25 03:45:59;;;;;;;26.23;8.20;;;;;;;12.78;69.58;101768.81;5027530;28;20046;-62
2023/05/25 03:48:27;;;;;;;18.80;8.27;;;;;;;12.90;69.45;101788.50;4995627;28;20053;-61
2023/05/25 03:50:54;;;;;;;23.65;7.85;;;;;;;12.89;69.83;101789.63;4996994;28;20050;-62
2023/05/25 03:53:21;;;;;;;19.05;8.00;;;;;;;12.84;69.83;101783.38;4994199;28;20046;-63
2023/05/25 03:55:50;;;;;;;16.40;7.63;;;;;;;12.55;70.84;101785.53;5011333;28;20053;-62
2023/05/25 03:58:18;;;;;;;20.15;7.55;;;;;;;12.75;70.74;101791.53;4995350;28;20047;-62
2023/05/25 04:00:48;;;;;;;17.15;6.97;;;;;;;12.76;70.90;101786.84;4995274;28;20058;-62
2023/05/25 04:03:16;;;;;;;20.45;8.23;;;;;;;12.70;70.42;101791.63;5010189;28;20050;-62
2023/05/25 04:05:44;;;;;;;24.13;8.15;;;;;;;12.44;71.27;101782.94;4996391;28;20054;-62
2023/05/25 04:08:16;;;;;;;17.40;7.43;;;;;;;12.50;71.19;101782.84;5001725;28;20077;-61
2023/05/25 04:10:45;;;;;;;18.23;7.85;;;;;;;12.46;71.33;101777.09;5013410;28;20057;-62
2023/05/25 04:13:12;;;;;;;21.00;7.90;;;;;;;12.25;72.18;101782.13;5015789;28;20065;-62
2023/05/25 04:15:39;;;;;;;20.90;7.18;;;;;;;12.51;71.55;101779.78;5014686;28;20050;-61
2023/05/25 04:18:19;;;;;;;21.30;8.30;;;;;;;12.36;71.67;101785.56;5001389;28;20061;-61
2023/05/25 04:20:48;;;;;;;20.67;8.05;;;;;;;12.43;71.78;101778.50;5030224;28;20497;-61
2023/05/25 04:23:18;;;;;;;25.63;8.10;;;;;;;12.59;71.47;101781.84;4998176;28;20080;-62
2023/05/25 04:25:46;;;;;;;24.30;7.60;;;;;;;12.53;71.54;101783.06;4981422;28;20062;-61
2023/05/25 04:28:14;;;;;;;24.88;8.75;;;;;;;12.50;71.76;101777.31;4983978;28;20061;-61
2023/05/25 04:30:57;;;;;;;17.08;7.65;;;;;;;12.43;72.66;101784.03;4997900;28;20497;-64
2023/05/25 04:33:38;;;;;;;20.60;7.68;;;;;;;12.47;71.80;101784.25;5013847;28;20050;-62
2023/05/25 04:36:18;;;;;;;23.73;8.50;;;;;;;12.67;71.24;101786.72;5030641;28;20057;-61
2023/05/25 04:38:46;;;;;;;21.27;7.85;;;;;;;12.77;70.72;101782.94;5030773;28;20050;-62
2023/05/25 04:41:14;;;;;;;24.52;8.95;;;;;;;12.69;70.53;101783.63;4997676;28;20050;-62
2023/05/25 04:43:45;;;;;;;18.55;8.18;;;;;;;12.73;70.60;101788.25;5021357;28;20061;-62
2023/05/25 04:46:36;;;;;;;25.40;8.50;;;;;;;12.85;70.11;101794.13;5030597;28;20057;-62
2023/05/25 04:49:04;;;;;;;27.17;7.95;;;;;;;12.63;70.46;101799.47;5030568;28;20494;-64
2023/05/25 04:51:32;;;;;;;19.30;7.20;;;;;;;12.59;71.04;101800.41;5012705;28;20669;-64
2023/05/25 04:53:59;;;;;;;22.02;7.72;;;;;;;12.56;71.25;101798.22;4996776;28;20498;-64
2023/05/25 04:56:27;;;;;;;21.25;8.27;;;;;;;12.87;71.05;101797.41;5013807;28;20057;-65
2023/05/25 04:58:54;;;;;;;21.25;8.30;;;;;;;12.82;69.99;101802.19;5013698;28;20054;-64
2023/05/25 05:01:22;;;;;;;26.70;9.18;;;;;;;12.81;70.07;101811.63;4997192;28;20050;-63
2023/05/25 05:03:52;;;;;;;25.20;8.35;;;;;;;12.63;70.72;101813.31;5013422;28;20054;-63
2023/05/25 05:06:20;;;;;;;24.17;9.20;;;;;;;12.48;70.82;101810.78;5013121;28;21010;-64
2023/05/25 05:08:47;;;;;;;19.40;8.50;;;;;;;12.48;70.82;101810.78;4997442;28;20065;-64
2023/05/25 05:11:15;;;;;;;19.85;8.35;;;;;;;12.46;71.29;101813.81;4997688;28;20049;-63
2023/05/25 05:13:43;;;;;;;20.48;8.30;;;;;;;12.47;71.13;101811.88;5013425;28;20061;-65
2023/05/25 05:16:11;;;;;;;20.83;9.07;;;;;;;12.30;71.51;101820.72;5013629;28;20069;-65
2023/05/25 05:18:39;;;;;;;18.95;8.43;;;;;;;12.32;71.70;101818.47;4996804;28;20506;-64
2023/05/25 05:21:06;;;;;;;21.45;8.63;;;;;;;12.41;71.26;101822.19;4996576;28;20054;-64
2023/05/25 05:23:35;;;;;;;26.35;8.73;;;;;;;12.72;70.71;101828.09;5011755;28;20129;-64
2023/05/25 05:26:03;;;;;;;19.45;8.52;;;;;;;12.70;69.92;101835.03;5013545;28;20049;-64
2023/05/25 05:28:34;;;;;;;21.52;7.88;;;;;;;12.93;70.72;101834.09;4996521;28;20053;-64
2023/05/25 05:31:03;;;;;;;22.73;8.18;;;;;;;13.19;69.35;101830.63;4980743;28;20069;-64
2023/05/25 05:33:30;;;;;;;19.60;8.57;;;;;;;12.86;68.69;101828.97;5029451;28;20069;-64
2023/05/25 05:36:01;;;;;;;19.23;8.30;;;;;;;12.62;70.02;101841.25;4996357;28;20100;-63
2023/05/25 05:38:29;;;;;;;21.77;8.65;;;;;;;12.65;69.90;101840.63;4985679;28;20053;-64
2023/05/25 05:40:57;;;;;;;21.40;8.85;;;;;;;12.67;68.99;101841.16;5012773;28;20058;-63
2023/05/25 05:43:24;;;;;;;19.55;8.15;;;;;;;12.73;69.84;101838.00;4995980;28;20058;-64
2023/05/25 05:45:52;;;;;;;22.02;8.50;;;;;;;12.72;69.20;101847.44;5012871;28;20054;-62
2023/05/25 05:48:20;;;;;;;22.45;8.35;;;;;;;12.95;68.96;101852.06;5013291;28;20054;-64
2023/05/25 05:50:47;;;;;;;28.40;8.10;;;;;;;12.77;68.75;101855.66;5010899;28;20050;-64
2023/05/25 05:53:15;;;;;;;23.20;8.27;;;;;;;12.89;68.42;101861.53;5012350;28;20064;-64
2023/05/25 05:55:42;;;;;;;19.45;8.02;;;;;;;12.94;68.72;101855.91;4996749;28;20073;-64
2023/05/25 05:58:10;;;;;;;20.77;8.45;;;;;;;12.32;70.16;101861.84;5012697;28;20436;-64
2023/05/25 06:00:38;;;;;;;27.73;9.38;;;;;;;12.54;69.85;101859.31;4996431;28;20072;-64
2023/05/25 06:03:06;;;;;;;21.35;7.63;;;;;;;12.45;69.92;101863.88;5012819;28;20049;-63
2023/05/25 06:05:34;;;;;;;22.67;9.38;;;;;;;12.67;69.05;101868.81;5013934;28;20082;-64
2023/05/25 06:08:02;;;;;;;19.95;8.45;;;;;;;12.49;68.49;101867.69;5010425;28;20065;-65
2023/05/25 06:10:33;;;;;;;18.70;8.23;;;;;;;12.62;68.61;101863.34;4996787;28;20257;-64
2023/05/25 06:13:01;;;;;;;21.90;8.43;;;;;;;12.59;69.09;101856.47;4995716;28;20060;-63
2023/05/25 06:15:29;;;;;;;16.90;7.75;;;;;;;12.77;68.39;101852.06;5012290;28;20048;-65
2023/05/25 06:17:58;;;;;;;20.48;7.60;;;;;;;12.96;67.24;101867.50;5027988;28;20049;-63
2023/05/25 06:20:26;;;;;;;20.27;8.90;;;;;;;12.74;68.26;101872.00;4988615;28;20046;-64
2023/05/25 06:22:54;;;;;;;21.85;8.90;;;;;;;12.85;67.55;101874.31;5003441;28;20541;-64
2023/05/25 06:25:21;;;;;;;25.80;9.10;;;;;;;12.94;67.58;101872.50;5009915;28;20054;-63
2023/05/25 06:27:49;;;;;;;20.92;8.40;;;;;;;13.03;67.00;101869.91;5024094;28;20050;-62
2023/05/25 06:30:17;;;;;;;18.92;7.78;;;;;;;13.06;66.18;101866.53;5013657;28;20050;-62
2023/05/25 06:32:44;;;;;;;20.25;8.60;;;;;;;13.21;67.10;101882.91;5010043;28;20054;-64
2023/05/25 06:35:18;;;;;;;23.05;8.38;;;;;;;13.48;65.29;101886.56;5000462;28;20061;-62
2023/05/25 06:37:48;;;;;;;24.33;8.50;;;;;;;13.44;64.84;101885.50;4992648;28;20057;-62
2023/05/25 06:40:18;;;;;;;24.40;7.97;;;;;;;13.68;65.06;101877.06;4996483;28;20045;-63
2023/05/25 06:42:45;;;;;;;17.05;7.15;;;;;;;13.69;63.61;101880.63;5008598;28;20058;-63
2023/05/25 06:45:31;;;;;;;24.58;7.38;;;;;;;13.59;63.02;101870.59;5005985;28;20311;-63
2023/05/25 06:47:59;;;;;;;19.98;7.35;;;;;;;13.68;63.18;101881.75;5003717;28;20533;-64
2023/05/25 06:50:27;;;;;;;16.45;7.18;;;;;;;13.65;62.50;101865.78;5022436;28;20046;-63
2023/05/25 06:52:54;;;;;;;22.33;7.18;;;;;;;13.80;62.52;101869.06;4993590;28;20065;-64
2023/05/25 06:55:22;;;;;;;19.92;7.03;;;;;;;13.82;61.49;101871.53;5018149;28;20057;-63
2023/05/25 06:57:50;;;;;;;20.38;6.53;;;;;;;14.01;61.37;101883.31;5009266;28;20053;-62
2023/05/25 07:00:18;;;;;;;15.95;6.55;;;;;;;14.05;61.88;101859.44;5005184;28;20049;-63
2023/05/25 07:02:45;;;;;;;22.30;7.22;;;;;;;14.13;60.53;101858.69;5017907;28;20049;-63
2023/05/25 07:05:13;;;;;;;20.02;6.35;;;;;;;14.33;60.50;101861.88;5007651;28;20045;-63
2023/05/25 07:07:40;;;;;;;32.05;7.05;;;;;;;14.46;59.69;101874.06;5019966;28;20046;-63
2023/05/25 07:10:08;;;;;;;22.25;7.45;;;;;;;14.31;59.15;101860.56;5021509;28;20042;-63
2023/05/25 07:12:35;;;;;;;20.35;7.07;;;;;;;14.30;58.75;101861.66;5002409;28;20057;-63
2023/05/25 07:15:04;;;;;;;17.98;6.00;;;;;;;14.37;58.70;101867.59;5018830;28;20140;-64
2023/05/25 07:17:31;;;;;;;16.98;6.20;;;;;;;14.30;58.74;101868.03;5018517;28;20054;-62
2023/05/25 07:19:59;;;;;;;21.27;6.10;;;;;;;14.62;58.11;101869.81;5014530;28;20046;-64
2023/05/25 07:22:26;;;;;;;18.33;6.18;;;;;;;14.79;57.25;101869.97;4997777;28;20045;-63
2023/05/25 07:24:53;;;;;;;16.95;6.65;;;;;;;15.16;57.46;101879.88;5013826;28;20050;-63
2023/05/25 07:27:21;;;;;;;23.42;6.00;;;;;;;15.15;56.47;101867.94;5014044;28;20041;-64
2023/05/25 07:29:48;;;;;;;23.40;6.60;;;;;;;15.68;55.22;101881.88;5014547;28;20042;-63
2023/05/25 07:32:15;;;;;;;17.65;5.57;;;;;;;15.77;53.60;101878.00;5015246;28;20060;-64
2023/05/25 07:34:43;;;;;;;18.73;6.10;;;;;;;15.90;52.34;101867.91;5016841;28;20058;-64
2023/05/25 07:37:10;;;;;;;20.92;5.97;;;;;;;15.90;52.39;101867.09;5015550;28;20054;-64
2023/05/25 07:39:39;;;;;;;17.52;6.00;;;;;;;15.95;52.59;101866.94;5017473;28;20052;-63
2023/05/25 07:42:06;;;;;;;18.80;5.35;;;;;;;16.00;51.31;101856.50;5022233;28;20061;-63
2023/05/25 07:44:34;;;;;;;27.80;6.00;;;;;;;16.49;50.83;101858.13;5012447;28;20547;-64
2023/05/25 07:47:01;;;;;;;20.95;5.30;;;;;;;16.65;49.94;101857.31;5019604;28;20406;-63
2023/05/25 07:49:29;;;;;;;18.00;5.38;;;;;;;16.37;49.45;101852.34;5012084;28;20046;-63
2023/05/25 07:51:56;;;;;;;19.30;4.82;;;;;;;16.25;49.81;101850.19;4986142;28;20429;-63
2023/05/25 07:54:24;;;;;;;15.40;5.22;;;;;;;16.51;49.13;101851.06;5016468;28;20058;-64
2023/05/25 07:56:51;;;;;;;17.75;5.05;;;;;;;16.31;49.31;101848.06;5015442;28;20381;-63
2023/05/25 07:59:20;;;;;;;18.48;4.82;;;;;;;16.35;49.40;101849.88;5010611;28;20057;-64
2023/05/25 08:01:47;;;;;;;23.83;5.03;;;;;;;16.62;48.60;101854.34;5013717;28;20072;-62
2023/05/25 08:04:14;;;;;;;23.73;5.60;;;;;;;16.59;48.37;101869.75;5012526;28;20049;-63
2023/05/25 08:06:43;;;;;;;24.05;5.55;;;;;;;16.08;49.45;101866.81;4996471;28;20248;-64
2023/05/25 08:09:12;;;;;;;12.10;4.00;;;;;;;16.01;49.41;101868.44;5014298;28;20054;-64
2023/05/25 08:11:39;;;;;;;21.02;4.53;;;;;;;16.16;49.02;101859.66;4993563;28;20047;-63
2023/05/25 08:14:06;;;;;;;22.55;5.32;;;;;;;16.20;49.44;101866.19;5013899;28;20428;-64
2023/05/25 08:16:33;;;;;;;16.60;4.82;;;;;;;16.33;47.70;101870.81;5013130;28;20053;-64
2023/05/25 08:19:01;;;;;;;13.52;4.18;;;;;;;15.96;48.27;101871.34;5015099;28;20054;-63
2023/05/25 08:21:28;;;;;;;15.68;4.47;;;;;;;15.98;48.21;101891.31;4992639;28;20526;-63
2023/05/25 08:23:57;;;;;;;11.93;3.85;;;;;;;15.79;48.21;101870.13;5012907;28;20465;-63
2023/05/25 08:26:25;;;;;;;13.05;4.65;;;;;;;15.97;47.68;101870.22;4993283;28;20053;-63
2023/05/25 08:29:12;;;;;;;16.08;4.63;;;;;;;16.14;46.92;101867.50;5013478;28;20404;-62
2023/05/25 08:31:46;;;;;;;13.00;3.95;;;;;;;16.36;46.18;101870.16;5026205;28;20046;-65
2023/05/25 08:34:13;;;;;;;12.63;3.63;;;;;;;16.33;46.04;101868.88;5014620;28;20520;-62
2023/05/25 08:36:40;;;;;;;14.52;4.18;;;;;;;16.26;46.32;101881.59;5015640;28;20048;-63
2023/05/25 08:39:09;;;;;;;12.60;3.65;;;;;;;16.16;46.18;101870.78;5009585;28;20069;-63
2023/05/25 08:41:42;;;;;;;9.88;3.20;;;;;;;16.06;46.42;101871.88;5014977;28;20048;-63
2023/05/25 08:44:10;;;;;;;15.65;3.67;;;;;;;16.06;46.16;101857.16;5017714;28;20559;-62
2023/05/25 08:46:37;;;;;;;13.35;4.20;;;;;;;16.25;46.05;101860.50;5008004;28;20054;-63
2023/05/25 08:49:12;;;;;;;11.65;3.67;;;;;;;16.27;46.76;101875.72;5010925;28;20061;-64
2023/05/25 08:51:53;;;;;;;14.88;3.90;;;;;;;16.37;46.46;101857.91;5024799;28;20490;-63
2023/05/25 08:54:28;;;;;;;14.00;3.50;;;;;;;16.63;46.47;101862.38;4996301;28;20069;-64
2023/05/25 08:57:04;;;;;;;13.25;3.47;;;;;;;16.81;45.11;101877.13;5014617;28;20049;-63
2023/05/25 08:59:46;;;;;;;13.52;3.70;;;;;;;16.44;44.59;101878.53;5018088;28;20080;-63
2023/05/25 09:02:22;;;;;;;19.80;4.32;;;;;;;16.40;45.17;101868.38;5009412;28;20053;-62
2023/05/25 09:04:50;;;;;;;15.15;3.83;;;;;;;16.42;44.54;101871.66;5012518;28;20056;-63
2023/05/25 09:07:17;;;;;;;13.50;3.88;;;;;;;16.32;43.88;101871.97;5011362;28;20057;-63
2023/05/25 09:09:46;;;;;;;13.07;3.50;;;;;;;16.34;43.65;101876.06;5009767;28;20061;-64
2023/05/25 09:12:15;;;;;;;12.90;3.70;;;;;;;16.23;44.84;101871.13;4979211;28;20042;-63
2023/05/25 09:14:46;;;;;;;11.35;3.58;;;;;;;16.33;45.27;101868.03;5009623;28;20062;-62
2023/05/25 09:17:15;;;;;;;15.88;4.15;;;;;;;16.30;44.91;101869.50;5015578;28;20058;-63
2023/05/25 09:19:43;;;;;;;17.08;4.00;;;;;;;16.44;44.39;101863.81;5017018;28;20045;-63
2023/05/25 09:22:10;;;;;;;11.50;3.50;;;;;;;16.73;43.96;101861.25;5020714;28;20726;-62
2023/05/25 09:24:43;;;;;;;12.73;4.18;;;;;;;17.01;43.48;101854.19;5009353;28;20061;-62
2023/05/25 09:27:16;;;;;;;23.17;3.70;;;;;;;17.07;42.49;101861.22;4974447;28;20848;-63
2023/05/25 09:29:50;;;;;;;11.77;3.83;;;;;;;16.91;41.27;101857.34;5021654;28;20592;-63
2023/05/25 09:32:17;;;;;;;11.88;3.45;;;;;;;16.98;41.67;101856.81;5015940;28;20044;-63
2023/05/25 09:34:46;;;;;;;16.38;4.35;;;;;;;17.06;41.50;101858.78;5016909;28;20053;-63
2023/05/25 09:37:15;;;;;;;11.95;3.30;;;;;;;16.82;43.02;101859.28;4993270;28;20057;-63
2023/05/25 09:39:43;;;;;;;15.73;3.70;;;;;;;17.01;42.23;101843.06;5011114;28;20042;-63
2023/05/25 09:42:11;;;;;;;8.50;3.08;;;;;;;17.21;41.81;101847.94;5006233;28;20668;-63
2023/05/25 09:44:39;;;;;;;12.60;3.38;;;;;;;17.22;41.89;101837.63;5013751;28;20517;-63
2023/05/25 09:47:06;;;;;;;18.05;3.80;;;;;;;17.19;41.34;101847.44;5012072;28;20061;-63
2023/05/25 09:49:34;;;;;;;13.23;3.17;;;;;;;17.02;41.34;101853.03;5013325;28;20061;-63
2023/05/25 09:52:01;;;;;;;9.15;3.10;;;;;;;17.31;40.63;101860.72;4977222;28;20045;-64
2023/05/25 09:54:29;;;;;;;14.68;3.70;;;;;;;17.22;40.03;101854.34;5011209;28;20058;-63
2023/05/25 09:56:56;;;;;;;10.80;3.58;;;;;;;17.23;40.17;101856.78;5006009;28;20061;-63
2023/05/25 09:59:24;;;;;;;11.27;3.30;;;;;;;17.14;41.13;101844.84;5005860;28;20065;-64
2023/05/25 10:01:54;;;;;;;16.60;4.15;;;;;;;17.27;41.92;101866.13;5009874;28;20501;-63
2023/05/25 10:04:22;;;;;;;11.77;3.45;;;;;;;17.32;42.69;101851.19;5005293;28;20054;-63
2023/05/25 10:06:50;;;;;;;11.95;3.90;;;;;;;17.69;42.21;101893.09;5011683;28;20054;-63
2023/05/25 10:09:19;;;;;;;21.70;3.50;;;;;;;17.17;42.65;101869.25;4990052;28;20057;-63
2023/05/25 10:11:47;;;;;;;11.32;4.22;;;;;;;17.34;42.52;101876.75;5011353;28;20590;-64
2023/05/25 10:14:20;;;;;;;12.40;3.50;;;;;;;17.23;42.28;101864.31;4984245;28;20065;-63
2023/05/25 10:16:50;;;;;;;17.15;5.75;;;;;;;17.39;42.80;101874.63;4999175;28;20042;-63
2023/05/25 10:19:20;;;;;;;;;;;;;;;17.54;42.56;101876.09;5011832;28;20054;-64
2023/05/25 10:21:59;;;;;;;11.68;3.30;;;;;;;17.25;42.24;101887.06;5009945;28;19929;-64
2023/05/25 10:24:34;;;;;;;14.98;5.22;;;;;;;17.18;41.79;101875.63;4987885;28;20444;-63
2023/05/25 10:27:02;;;;;;;18.90;5.40;;;;;;;17.41;41.44;101860.34;5005055;28;20874;-63
2023/05/25 10:29:48;;;;;;;9.60;3.25;;;;;;;17.42;40.57;101875.91;4983081;28;20061;-63
2023/05/25 10:32:16;;;;;;;12.75;3.22;;;;;;;17.42;40.58;101864.75;4988446;28;20053;-63
2023/05/25 10:34:44;;;;;;;12.88;3.63;;;;;;;17.53;40.74;101878.06;5004839;28;20290;-62
2023/05/25 10:37:13;;;;;;;14.07;3.40;;;;;;;17.46;41.16;101880.53;4987518;28;20405;-63
2023/05/25 10:39:42;;;;;;;11.98;3.45;;;;;;;17.40;41.31;101887.38;5009411;28;20058;-64
2023/05/25 10:42:11;;;;;;;21.05;4.35;;;;;;;17.45;41.06;101884.41;4988099;28;20050;-63
2023/05/25 10:44:41;;;;;;;8.07;3.60;;;;;;;17.50;41.04;101873.16;5003923;28;20050;-63
2023/05/25 10:47:08;;;;;;;8.40;3.22;;;;;;;17.63;40.55;101865.72;4995004;28;20305;-64
2023/05/25 10:49:52;;;;;;;15.25;4.82;;;;;;;17.64;40.05;101872.94;4999502;28;20046;-64
2023/05/25 10:52:19;;;;;;;10.05;3.30;;;;;;;17.60;39.86;101861.66;5001302;28;20043;-65
2023/05/25 10:54:47;;;;;;;9.10;3.42;;;;;;;17.76;40.08;101865.53;4986448;28;20049;-64
2023/05/25 10:57:20;;;;;;;14.80;3.88;;;;;;;17.74;39.92;101867.00;5000452;28;20548;-65
2023/05/25 10:59:49;;;;;;;10.88;3.03;;;;;;;18.01;40.36;101860.97;5002229;28;20042;-66
2023/05/25 11:02:21;;;;;;;10.00;4.90;;;;;;;18.19;40.20;101851.34;5008849;28;20073;-64
2023/05/25 11:04:50;;;;;;;9.30;3.45;;;;;;;18.06;40.36;101865.56;4990629;28;20050;-65
2023/05/25 11:07:18;;;;;;;13.25;3.70;;;;;;;18.03;40.46;101850.28;5008482;28;20034;-64
2023/05/25 11:09:57;;;;;;;12.95;3.85;;;;;;;18.30;39.80;101858.19;5004949;28;20445;-65
2023/05/25 11:12:25;;;;;;;11.35;3.83;;;;;;;18.35;39.95;101854.38;5007651;28;20050;-65
2023/05/25 11:15:15;;;;;;;9.43;3.22;;;;;;;18.07;39.77;101861.59;5012939;28;20088;-65
2023/05/25 11:17:46;;;;;;;11.50;3.10;;;;;;;18.21;39.87;101860.22;5016082;28;20050;-64
2023/05/25 11:20:21;;;;;;;;;;;;;;;18.52;39.49;101832.78;4993821;28;20049;-66
2023/05/25 11:22:50;;;;;;;9.32;2.80;;;;;;;18.47;38.27;101865.66;4990678;28;20440;-63
2023/05/25 11:25:33;;;;;;;9.98;2.80;;;;;;;18.24;38.22;101862.31;5009591;28;20053;-63
2023/05/25 11:28:04;;;;;;;7.70;2.90;;;;;;;18.20;38.38;101849.41;5011895;28;20046;-64
2023/05/25 11:30:32;;;;;;;15.15;3.63;;;;;;;18.14;39.13;101853.53;5010089;28;20057;-64